createdAt,value
2022-08-19T00:01:55.602Z,13.57
2022-08-19T00:04:26.454Z,14.80
2022-08-19T00:06:56.452Z,14.07
2022-08-19T00:09:26.359Z,14.90
2022-08-19T00:11:56.658Z,14.23
2022-08-19T00:14:26.857Z,14.98
2022-08-19T00:16:56.051Z,14.32
2022-08-19T00:19:25.148Z,15.25
2022-08-19T00:21:57.293Z,15.05
2022-08-19T00:24:25.910Z,14.43
2022-08-19T00:26:54.420Z,15.30
2022-08-19T00:29:23.772Z,15.18
2022-08-19T00:31:54.022Z,14.70
2022-08-19T00:34:22.671Z,14.52
2022-08-19T00:36:51.051Z,13.80
2022-08-19T00:39:20.711Z,15.50
2022-08-19T00:41:50.908Z,14.60
2022-08-19T00:44:22.716Z,13.93
2022-08-19T00:46:58.755Z,14.93
2022-08-19T00:49:31.765Z,15.63
2022-08-19T00:52:03.778Z,14.38
2022-08-19T00:54:34.155Z,14.60
2022-08-19T00:57:07.143Z,14.45
2022-08-19T00:59:53.489Z,15.48
2022-08-19T01:02:27.562Z,15.15
2022-08-19T01:04:56.053Z,15.07
2022-08-19T01:07:24.425Z,14.05
2022-08-19T01:09:54.315Z,15.32
2022-08-19T01:12:23.242Z,14.32
2022-08-19T01:14:52.219Z,15.32
2022-08-19T01:17:21.411Z,16.15
2022-08-19T01:19:50.345Z,15.63
2022-08-19T01:22:30.203Z,15.73
2022-08-19T01:25:03.576Z,15.00
2022-08-19T01:27:42.973Z,15.00
2022-08-19T01:30:14.530Z,15.07
2022-08-19T01:32:42.985Z,15.73
2022-08-19T01:35:13.083Z,15.48
2022-08-19T01:37:46.170Z,15.07
2022-08-19T01:40:15.973Z,14.60
2022-08-19T01:42:44.108Z,14.60
2022-08-19T01:45:12.789Z,14.75
2022-08-19T01:47:40.993Z,14.77
2022-08-19T01:50:11.698Z,15.05
2022-08-19T01:52:40.954Z,14.43
2022-08-19T01:55:12.790Z,14.88
2022-08-19T01:57:45.167Z,15.20
2022-08-19T02:00:16.527Z,15.02
2022-08-19T02:02:44.981Z,15.57
2022-08-19T02:05:14.576Z,15.63
2022-08-19T02:07:43.309Z,15.73
2022-08-19T02:10:16.679Z,15.45
2022-08-19T02:12:46.667Z,15.23
2022-08-19T02:15:15.968Z,15.40
2022-08-19T02:17:44.520Z,15.95
2022-08-19T02:20:14.167Z,16.23
2022-08-19T02:22:43.507Z,16.33
2022-08-19T02:25:12.145Z,16.38
2022-08-19T02:27:41.029Z,16.92
2022-08-19T02:30:17.358Z,16.75
2022-08-19T02:32:45.943Z,16.80
2022-08-19T02:35:14.904Z,16.00
2022-08-19T02:38:01.465Z,16.30
2022-08-19T02:40:29.764Z,16.63
2022-08-19T02:42:58.354Z,16.42
2022-08-19T02:45:27.769Z,16.08
2022-08-19T02:47:57.926Z,16.60
2022-08-19T02:50:26.473Z,16.17
2022-08-19T02:52:54.740Z,17.00
2022-08-19T02:55:22.938Z,16.52
2022-08-19T02:57:51.131Z,15.13
2022-08-19T03:00:19.798Z,17.00
2022-08-19T03:02:49.865Z,15.38
2022-08-19T03:05:18.255Z,14.25
2022-08-19T03:07:56.638Z,15.95
2022-08-19T03:10:24.851Z,16.25
2022-08-19T03:12:53.079Z,16.20
2022-08-19T03:15:21.494Z,15.23
2022-08-19T03:17:50.922Z,15.27
2022-08-19T03:20:19.231Z,15.80
2022-08-19T03:22:47.375Z,15.38
2022-08-19T03:25:16.755Z,16.00
2022-08-19T03:27:45.354Z,14.63
2022-08-19T03:30:14.906Z,15.98
2022-08-19T03:32:53.071Z,15.75
2022-08-19T03:35:25.335Z,15.13
2022-08-19T03:37:53.905Z,15.02
2022-08-19T03:40:22.158Z,14.82
2022-08-19T03:42:51.032Z,15.40
2022-08-19T03:45:20.609Z,15.65
2022-08-19T03:47:48.643Z,15.40
2022-08-19T03:50:18.946Z,15.10
2022-08-19T03:52:51.352Z,17.40
2022-08-19T03:55:19.735Z,15.75
2022-08-19T03:57:48.680Z,14.68
2022-08-19T04:00:18.524Z,16.08
2022-08-19T04:02:56.451Z,15.93
2022-08-19T04:05:29.574Z,15.77
2022-08-19T04:08:00.286Z,14.90
2022-08-19T04:10:29.644Z,14.95
2022-08-19T04:12:57.817Z,15.43
2022-08-19T04:15:25.943Z,14.85
2022-08-19T04:17:54.240Z,15.18
2022-08-19T04:20:22.271Z,16.65
2022-08-19T04:22:51.838Z,15.48
2022-08-19T04:25:20.188Z,15.68
2022-08-19T04:27:49.518Z,16.15
2022-08-19T04:30:18.699Z,16.45
2022-08-19T04:32:46.786Z,15.82
2022-08-19T04:35:16.707Z,14.85
2022-08-19T04:37:46.846Z,14.75
2022-08-19T04:40:34.293Z,15.07
2022-08-19T04:43:03.003Z,15.27
2022-08-19T04:45:39.612Z,16.52
2022-08-19T04:48:26.417Z,14.35
2022-08-19T04:50:58.957Z,14.88
2022-08-19T04:53:29.583Z,14.63
2022-08-19T04:56:00.247Z,14.07
2022-08-19T04:58:29.458Z,14.13
2022-08-19T05:00:57.666Z,14.02
2022-08-19T05:03:30.084Z,13.70
2022-08-19T05:05:59.477Z,14.25
2022-08-19T05:08:31.506Z,14.00
2022-08-19T05:11:01.227Z,15.10
2022-08-19T05:13:30.606Z,14.55
2022-08-19T05:16:00.091Z,13.45
2022-08-19T05:18:51.284Z,13.70
2022-08-19T05:21:38.886Z,14.10
2022-08-19T05:24:09.816Z,13.35
2022-08-19T05:26:40.216Z,14.13
2022-08-19T05:29:09.580Z,13.90
2022-08-19T05:31:41.700Z,14.70
2022-08-19T05:34:20.120Z,14.73
2022-08-19T05:36:48.761Z,13.20
2022-08-19T05:39:19.359Z,13.35
2022-08-19T05:41:53.703Z,13.70
2022-08-19T05:44:22.404Z,14.25
2022-08-19T05:46:53.791Z,13.90
2022-08-19T05:49:24.462Z,13.85
2022-08-19T05:51:52.616Z,12.77
2022-08-19T05:54:21.444Z,13.20
2022-08-19T05:56:52.877Z,13.60
2022-08-19T05:59:22.599Z,13.60
2022-08-19T06:01:58.046Z,12.68
2022-08-19T06:04:27.028Z,12.82
2022-08-19T06:06:55.829Z,11.98
2022-08-19T06:09:24.705Z,12.55
2022-08-19T06:11:56.837Z,11.82
2022-08-19T06:14:28.760Z,12.48
2022-08-19T06:16:57.273Z,11.90
2022-08-19T06:19:26.441Z,11.50
2022-08-19T06:21:55.282Z,11.98
2022-08-19T06:24:26.825Z,10.85
2022-08-19T06:27:00.980Z,11.27
2022-08-19T06:29:30.930Z,11.40
2022-08-19T06:32:01.476Z,11.48
2022-08-19T06:34:31.413Z,11.20
2022-08-19T06:37:02.381Z,11.10
2022-08-19T06:39:32.605Z,10.70
2022-08-19T06:42:07.205Z,10.18
2022-08-19T06:44:42.460Z,9.70
2022-08-19T06:47:23.922Z,10.95
2022-08-19T06:50:00.973Z,10.75
2022-08-19T06:52:29.781Z,11.13
2022-08-19T06:54:59.709Z,10.95
2022-08-19T06:57:33.716Z,10.65
2022-08-19T07:00:02.116Z,11.55
2022-08-19T07:02:30.545Z,10.27
2022-08-19T07:04:59.358Z,10.23
2022-08-19T07:07:27.709Z,10.73
2022-08-19T07:09:59.400Z,11.70
2022-08-19T07:12:35.643Z,10.00
2022-08-19T07:15:04.466Z,10.43
2022-08-19T07:17:34.567Z,10.32
2022-08-19T07:20:05.524Z,9.90
2022-08-19T07:22:35.377Z,9.85
2022-08-19T07:25:05.185Z,10.07
2022-08-19T07:27:34.938Z,9.82
2022-08-19T07:30:03.496Z,10.32
2022-08-19T07:32:32.543Z,9.35
2022-08-19T07:35:04.288Z,9.15
2022-08-19T07:37:33.529Z,9.63
2022-08-19T07:40:02.344Z,9.25
2022-08-19T07:42:31.103Z,9.40
2022-08-19T07:45:00.846Z,10.05
2022-08-19T07:47:58.450Z,9.52
2022-08-19T07:50:19.022Z,9.15
2022-08-19T07:52:49.146Z,9.68
2022-08-19T07:55:40.478Z,8.98
2022-08-19T07:58:09.519Z,9.77
2022-08-19T08:00:39.263Z,9.10
2022-08-19T08:03:07.466Z,9.35
2022-08-19T08:05:52.810Z,8.93
2022-08-19T08:08:37.840Z,9.13
2022-08-19T08:11:15.523Z,9.25
2022-08-19T08:13:44.003Z,9.20
2022-08-19T08:16:14.170Z,8.45
2022-08-19T08:18:50.501Z,8.52
2022-08-19T08:21:21.472Z,8.30
2022-08-19T08:23:51.053Z,9.43
2022-08-19T08:26:20.276Z,8.60
2022-08-19T08:28:49.495Z,8.23
2022-08-19T08:31:20.654Z,8.82
2022-08-19T08:33:49.118Z,9.00
2022-08-19T08:36:18.170Z,8.75
2022-08-19T08:38:47.474Z,8.60
2022-08-19T08:41:24.581Z,8.93
2022-08-19T08:43:54.432Z,9.15
2022-08-19T08:46:30.507Z,8.85
2022-08-19T08:49:06.660Z,8.93
2022-08-19T08:54:16.868Z,9.20
2022-08-19T08:56:46.678Z,9.48
2022-08-19T08:59:21.279Z,9.73
2022-08-19T09:01:50.820Z,9.05
2022-08-19T09:04:19.339Z,8.80
2022-08-19T09:06:55.516Z,9.00
2022-08-19T09:09:33.286Z,8.95
2022-08-19T09:12:11.986Z,8.98
2022-08-19T09:14:50.797Z,8.60
2022-08-19T09:17:29.224Z,9.20
2022-08-19T09:20:01.613Z,8.65
2022-08-19T09:22:30.047Z,8.77
2022-08-19T09:24:58.402Z,8.90
2022-08-19T09:27:42.493Z,8.40
2022-08-19T09:30:16.083Z,8.55
2022-08-19T09:32:46.465Z,8.50
2022-08-19T09:35:15.512Z,8.85
2022-08-19T09:37:45.021Z,8.70
2022-08-19T09:40:15.432Z,8.50
2022-08-19T09:42:50.371Z,8.57
2022-08-19T09:45:23.618Z,8.80
2022-08-19T09:47:55.130Z,9.05
2022-08-19T09:50:24.837Z,8.65
2022-08-19T09:52:57.548Z,8.88
2022-08-19T09:55:31.014Z,8.82
2022-08-19T09:58:04.062Z,8.90
2022-08-19T10:00:32.961Z,9.27
2022-08-19T10:03:02.449Z,9.45
2022-08-19T10:05:50.074Z,8.88
2022-08-19T10:08:20.762Z,9.45
2022-08-19T10:10:50.024Z,9.20
2022-08-19T10:13:22.950Z,8.77
2022-08-19T10:15:52.443Z,10.02
2022-08-19T10:18:23.110Z,9.68
2022-08-19T10:20:53.492Z,9.57
2022-08-19T10:23:22.966Z,9.55
2022-08-19T10:25:52.396Z,8.73
2022-08-19T10:28:20.463Z,8.65
2022-08-19T10:30:49.521Z,8.63
2022-08-19T10:33:39.068Z,8.10
2022-08-19T10:36:10.584Z,8.38
2022-08-19T10:38:39.033Z,7.40
2022-08-19T10:41:12.381Z,7.75
2022-08-19T10:43:40.934Z,7.97
2022-08-19T10:46:14.027Z,7.32
2022-08-19T10:48:45.256Z,7.30
2022-08-19T10:51:32.346Z,7.70
2022-08-19T10:54:01.625Z,7.80
2022-08-19T10:56:47.540Z,7.35
2022-08-19T10:59:16.508Z,7.30
2022-08-19T11:01:46.226Z,7.55
2022-08-19T11:04:14.825Z,7.28
2022-08-19T11:06:46.367Z,8.30
2022-08-19T11:09:14.803Z,7.45
2022-08-19T11:11:42.931Z,7.10
2022-08-19T11:14:13.709Z,7.45
2022-08-19T11:16:42.890Z,6.85
2022-08-19T11:19:12.778Z,6.68
2022-08-19T11:21:44.705Z,6.88
2022-08-19T11:24:18.433Z,7.18
2022-08-19T11:26:47.024Z,7.18
2022-08-19T11:29:15.657Z,6.28
2022-08-19T11:31:48.199Z,7.25
2022-08-19T11:34:20.305Z,7.22
2022-08-19T11:36:51.687Z,6.65
2022-08-19T11:39:21.887Z,7.00
2022-08-19T11:41:50.530Z,7.20
2022-08-19T11:44:18.840Z,7.22
2022-08-19T11:46:47.943Z,6.93
2022-08-19T11:49:17.717Z,7.05
2022-08-19T11:51:46.091Z,6.93
2022-08-19T11:54:16.992Z,6.40
2022-08-19T11:56:46.587Z,6.93
2022-08-19T11:59:15.081Z,6.70
2022-08-19T12:01:44.516Z,6.60
2022-08-19T12:04:13.181Z,6.85
2022-08-19T12:06:43.437Z,6.50
2022-08-19T12:09:12.729Z,5.97
2022-08-19T12:11:42.538Z,7.10
2022-08-19T12:14:15.071Z,5.72
2022-08-19T12:16:51.249Z,6.32
2022-08-19T12:19:22.508Z,6.95
2022-08-19T12:21:51.765Z,6.13
2022-08-19T12:24:24.100Z,6.03
2022-08-19T12:26:54.471Z,6.22
2022-08-19T12:29:30.630Z,5.80
2022-08-19T12:32:02.280Z,6.03
2022-08-19T12:34:33.438Z,6.75
2022-08-19T12:37:04.243Z,6.18
2022-08-19T12:39:32.760Z,6.05
2022-08-19T12:42:02.241Z,6.60
2022-08-19T12:44:32.033Z,6.43
2022-08-19T12:47:01.846Z,6.03
2022-08-19T12:49:52.765Z,6.00
2022-08-19T12:52:23.456Z,5.70
2022-08-19T12:54:53.859Z,5.57
2022-08-19T12:57:32.746Z,6.07
2022-08-19T13:00:05.679Z,5.78
2022-08-19T13:02:38.173Z,6.10
2022-08-19T13:05:09.295Z,5.90
2022-08-19T13:07:38.256Z,6.00
2022-08-19T13:10:07.670Z,6.00
2022-08-19T13:12:37.442Z,6.00
2022-08-19T13:15:11.080Z,6.38
2022-08-19T13:17:39.969Z,6.25
2022-08-19T13:20:09.755Z,6.57
2022-08-19T13:22:38.384Z,5.80
2022-08-19T13:25:07.858Z,6.45
2022-08-19T13:27:37.890Z,5.90
2022-08-19T13:30:25.577Z,5.93
2022-08-19T13:33:11.284Z,6.50
2022-08-19T13:35:39.746Z,5.97
2022-08-19T13:38:11.960Z,6.80
2022-08-19T13:40:41.453Z,5.65
2022-08-19T13:43:17.473Z,6.40
2022-08-19T13:45:52.944Z,5.63
2022-08-19T13:48:21.077Z,6.20
2022-08-19T13:50:49.181Z,5.70
2022-08-19T13:53:18.198Z,6.47
2022-08-19T13:55:46.637Z,6.18
2022-08-19T13:58:16.080Z,5.70
2022-08-19T14:00:47.170Z,5.88
2022-08-19T14:03:15.428Z,6.18
2022-08-19T14:05:43.629Z,5.60
2022-08-19T14:08:15.182Z,5.88
2022-08-19T14:10:45.371Z,6.07
2022-08-19T14:13:18.628Z,5.88
2022-08-19T14:15:48.254Z,6.13
2022-08-19T14:18:16.830Z,6.28
2022-08-19T14:20:45.772Z,6.15
2022-08-19T14:23:14.784Z,6.20
2022-08-19T14:25:43.050Z,6.32
2022-08-19T14:28:11.281Z,6.60
2022-08-19T14:30:40.836Z,6.70
2022-08-19T14:33:10.000Z,6.65
2022-08-19T14:35:38.789Z,6.10
2022-08-19T14:38:09.081Z,5.72
2022-08-19T14:40:37.346Z,6.18
2022-08-19T14:43:06.547Z,5.93
2022-08-19T14:45:38.305Z,6.43
2022-08-19T14:48:09.084Z,5.80
2022-08-19T14:50:46.994Z,5.47
2022-08-19T14:53:15.100Z,5.70
2022-08-19T14:55:44.212Z,6.00
2022-08-19T14:58:28.503Z,6.38
2022-08-19T15:00:59.217Z,5.60
2022-08-19T15:03:29.039Z,5.72
2022-08-19T15:05:58.460Z,5.30
2022-08-19T15:08:27.533Z,5.72
2022-08-19T15:10:56.143Z,5.75
2022-08-19T15:13:25.621Z,5.15
2022-08-19T15:15:53.797Z,5.75
2022-08-19T15:18:22.822Z,5.53
2022-08-19T15:20:52.979Z,5.50
2022-08-19T15:23:21.849Z,5.28
2022-08-19T15:25:53.016Z,5.25
2022-08-19T15:28:21.210Z,5.40
2022-08-19T15:30:49.282Z,5.00
2022-08-19T15:33:18.695Z,5.28
2022-08-19T15:35:46.751Z,5.30
2022-08-19T15:38:22.286Z,5.57
2022-08-19T15:40:52.691Z,5.10
2022-08-19T15:43:23.236Z,5.68
2022-08-19T15:45:51.303Z,5.43
2022-08-19T15:48:19.432Z,5.50
2022-08-19T15:50:48.070Z,5.28
2022-08-19T15:53:18.157Z,4.78
2022-08-19T15:55:48.841Z,5.68
2022-08-19T15:58:34.346Z,4.75
2022-08-19T16:01:23.887Z,4.88
2022-08-19T16:04:14.938Z,5.18
2022-08-19T16:06:46.039Z,4.82
2022-08-19T16:09:17.081Z,5.50
2022-08-19T16:11:56.502Z,4.80
2022-08-19T16:14:25.185Z,4.80
2022-08-19T16:16:55.587Z,4.78
2022-08-19T16:19:24.947Z,5.07
2022-08-19T16:21:55.382Z,4.65
2022-08-19T16:24:28.666Z,4.63
2022-08-19T16:26:57.911Z,5.20
2022-08-19T16:29:33.711Z,4.63
2022-08-19T16:32:02.991Z,4.85
2022-08-19T16:34:35.213Z,5.07
2022-08-19T16:37:06.078Z,4.82
2022-08-19T16:39:35.610Z,4.90
2022-08-19T16:42:05.308Z,5.10
2022-08-19T16:44:35.880Z,5.68
2022-08-19T16:47:04.500Z,5.07
2022-08-19T16:49:54.103Z,5.38
2022-08-19T16:52:21.478Z,5.25
2022-08-19T16:54:50.900Z,5.25
2022-08-19T16:57:19.498Z,5.85
2022-08-19T16:59:48.928Z,5.22
2022-08-19T17:02:18.229Z,5.20
2022-08-19T17:04:57.283Z,5.38
2022-08-19T17:07:26.753Z,5.30
2022-08-19T17:09:57.135Z,5.22
2022-08-19T17:12:30.277Z,5.03
2022-08-19T17:14:59.377Z,5.22
2022-08-19T17:17:29.267Z,5.22
2022-08-19T17:19:57.853Z,6.03
2022-08-19T17:22:25.952Z,5.55
2022-08-19T17:24:56.091Z,5.38
2022-08-19T17:27:26.266Z,5.57
2022-08-19T17:29:54.361Z,5.28
2022-08-19T17:32:24.889Z,5.38
2022-08-19T17:34:54.175Z,5.10
2022-08-19T17:37:22.749Z,6.13
2022-08-19T17:39:50.844Z,4.80
2022-08-19T17:42:20.535Z,5.25
2022-08-19T17:44:50.842Z,4.93
2022-08-19T17:47:21.103Z,4.95
2022-08-19T17:49:49.255Z,5.10
2022-08-19T17:52:17.343Z,5.32
2022-08-19T17:54:45.578Z,5.25
2022-08-19T17:57:14.131Z,5.25
2022-08-19T17:59:43.574Z,5.43
2022-08-19T18:02:12.924Z,5.68
2022-08-19T18:04:45.546Z,5.30
2022-08-19T18:07:21.406Z,5.38
2022-08-19T18:09:52.052Z,4.72
2022-08-19T18:12:26.582Z,5.03
2022-08-19T18:14:56.081Z,4.97
2022-08-19T18:17:26.002Z,5.93
2022-08-19T18:19:54.051Z,5.18
2022-08-19T18:22:26.573Z,5.57
2022-08-19T18:24:57.566Z,5.25
2022-08-19T18:27:27.120Z,5.18
2022-08-19T18:29:59.444Z,5.75
2022-08-19T18:32:29.346Z,5.68
2022-08-19T18:34:57.434Z,7.30
2022-08-19T18:37:27.094Z,5.60
2022-08-19T18:40:13.310Z,6.20
2022-08-19T18:43:01.621Z,5.72
2022-08-19T18:45:49.270Z,5.50
2022-08-19T18:48:35.159Z,6.20
2022-08-19T18:51:03.979Z,5.63
2022-08-19T18:53:34.351Z,5.65
2022-08-19T18:56:02.501Z,6.00
2022-08-19T18:58:34.717Z,5.70
2022-08-19T19:01:10.858Z,6.28
2022-08-19T19:03:45.279Z,5.78
2022-08-19T19:06:14.450Z,5.68
2022-08-19T19:08:42.566Z,6.05
2022-08-19T19:11:12.031Z,5.88
2022-08-19T19:13:40.899Z,5.82
2022-08-19T19:16:12.493Z,6.18
2022-08-19T19:18:40.526Z,5.88
2022-08-19T19:21:09.424Z,6.03
2022-08-19T19:23:40.748Z,5.57
2022-08-19T19:26:10.554Z,5.78
2022-08-19T19:28:43.497Z,5.97
2022-08-19T19:31:15.201Z,6.28
2022-08-19T19:33:44.678Z,5.85
2022-08-19T19:36:13.373Z,6.10
2022-08-19T19:38:48.316Z,5.88
2022-08-19T19:41:19.902Z,5.93
2022-08-19T19:43:56.650Z,6.85
2022-08-19T19:46:34.500Z,5.85
2022-08-19T19:49:02.955Z,6.10
2022-08-19T19:51:32.581Z,6.22
2022-08-19T19:54:06.416Z,6.70
2022-08-19T19:56:35.086Z,5.80
2022-08-19T19:59:04.136Z,6.00
2022-08-19T20:01:33.700Z,6.80
2022-08-19T20:04:02.541Z,5.88
2022-08-19T20:06:31.382Z,6.13
2022-08-19T20:09:10.940Z,5.78
2022-08-19T20:11:41.589Z,6.68
2022-08-19T20:14:12.560Z,5.93
2022-08-19T20:16:44.056Z,6.07
2022-08-19T20:19:13.604Z,6.32
2022-08-19T20:21:43.607Z,5.90
2022-08-19T20:24:15.024Z,6.07
2022-08-19T20:26:44.237Z,5.93
2022-08-19T20:29:39.391Z,6.00
2022-08-19T20:32:05.665Z,6.32
2022-08-19T20:34:33.838Z,7.80
2022-08-19T20:37:01.976Z,5.88
2022-08-19T20:39:30.033Z,5.78
2022-08-19T20:41:58.365Z,6.43
2022-08-19T20:44:26.410Z,5.57
2022-08-19T20:46:56.892Z,6.53
2022-08-19T20:49:29.404Z,5.78
2022-08-19T20:51:58.457Z,5.60
2022-08-19T20:54:27.169Z,5.70
2022-08-19T20:56:55.949Z,6.15
2022-08-19T20:59:25.874Z,6.03
2022-08-19T21:01:54.645Z,6.35
2022-08-19T21:04:23.164Z,5.72
2022-08-19T21:06:52.664Z,6.40
2022-08-19T21:09:20.772Z,5.65
2022-08-19T21:11:49.315Z,5.72
2022-08-19T21:14:17.864Z,5.85
2022-08-19T21:16:46.250Z,5.60
2022-08-19T21:19:14.580Z,5.60
2022-08-19T21:21:42.665Z,5.57
2022-08-19T21:24:12.095Z,4.63
2022-08-19T21:26:40.435Z,5.20
2022-08-19T21:29:08.477Z,5.88
2022-08-19T21:31:36.566Z,5.25
2022-08-19T21:34:05.367Z,5.25
2022-08-19T21:36:33.435Z,5.30
2022-08-19T21:39:01.547Z,5.28
2022-08-19T21:41:30.972Z,5.53
2022-08-19T21:43:59.050Z,5.88
2022-08-19T21:46:27.268Z,5.65
2022-08-19T21:48:55.350Z,5.30
2022-08-19T21:51:23.421Z,5.35
2022-08-19T21:53:52.924Z,5.35
2022-08-19T21:56:21.164Z,5.15
2022-08-19T21:58:50.593Z,5.03
2022-08-19T22:01:18.712Z,5.10
2022-08-19T22:03:46.851Z,5.25
2022-08-19T22:06:14.997Z,5.20
2022-08-19T22:08:44.740Z,5.22
2022-08-19T22:11:13.153Z,4.80
2022-08-19T22:13:41.829Z,5.70
2022-08-19T22:16:14.025Z,5.25
2022-08-19T22:18:42.158Z,4.85
2022-08-19T22:21:12.169Z,6.35
2022-08-19T22:23:41.839Z,5.40
2022-08-19T22:26:09.972Z,5.60
2022-08-19T22:28:38.213Z,5.18
2022-08-19T22:31:08.228Z,4.72
2022-08-19T22:33:39.028Z,5.40
2022-08-19T22:36:08.581Z,5.50
2022-08-19T22:38:37.398Z,6.15
2022-08-19T22:41:07.844Z,6.15
2022-08-19T22:43:37.537Z,6.43
2022-08-19T22:46:16.793Z,5.90
2022-08-19T22:48:47.841Z,6.25
2022-08-19T22:51:42.184Z,5.93
2022-08-19T22:54:10.618Z,5.80
2022-08-19T22:56:39.921Z,5.82
2022-08-19T22:59:08.611Z,6.10
2022-08-19T23:01:37.026Z,5.63
2022-08-19T23:04:06.691Z,6.75
2022-08-19T23:06:37.273Z,5.68
2022-08-19T23:09:09.379Z,5.80
2022-08-19T23:11:41.890Z,6.05
2022-08-19T23:14:11.191Z,5.57
2022-08-19T23:16:39.528Z,6.03
2022-08-19T23:19:11.838Z,5.97
2022-08-19T23:21:40.297Z,6.05
2022-08-19T23:24:08.853Z,5.95
2022-08-19T23:26:37.205Z,5.85
2022-08-19T23:29:24.024Z,5.75
2022-08-19T23:31:52.314Z,5.85
2022-08-19T23:34:21.748Z,5.75
2022-08-19T23:36:50.489Z,5.43
2022-08-19T23:39:19.308Z,5.53
2022-08-19T23:41:47.549Z,6.00
2022-08-19T23:44:15.635Z,5.70
2022-08-19T23:46:54.409Z,6.10
2022-08-19T23:49:25.677Z,6.57
2022-08-19T23:51:55.717Z,5.68
2022-08-19T23:54:34.210Z,6.07
2022-08-19T23:57:13.459Z,6.03
2022-08-19T23:59:45.181Z,6.00
